Alta Vista, KS (66834)

10:45 AM CDT on October 02, 2014 (GMT -0500)
Marshall Army Air Field | Change Station
CLOSE
Current Station
Airport
Location: Ft Riley,
Elevation: 1063 ft
Nearby Weather Stations
Active Advisory: Severe Thunderstorm Watch

Elev 1063 ft 39.06 °N, 96.76 °W | Updated 47 minutes ago

Overcast
Overcast
60 °F
Feels Like 60 °F
N
17
Wind Variable Wind from NNE
Gusts 24 mph

Today
High -- | Low -- °F
--% Chance of Precip.
Yesterday
High -- | Low -- °F
Precip. -- in
7:22 AM 7:07 PM
First Quarter, 60% visible
Pressure 29.76 in
Visibility 10.0 miles
Clouds Overcast 4900 ft
Dew Point 56 °F
Humidity 86%
Rainfall 0.01 in
Snow Depth Not available.
UV 1 out of 12
Pollen .50 out of 12
Air Quality Not available.
Flu Activity Not available.
METAR KFRI 021458Z AUTO 03015G21KT 10SM OVC049 16/13 A2978 RMK AO2 SLP078 60001 T01570134 50014

More Conditions Fewer Conditions

Pressure 29.76 in
Visibility 10.0 miles
Clouds Overcast 4900 ft
Dew Point 56 °F
Humidity 86%
Rainfall 0.01 in
Snow Depth Not available.
UV 1 out of 12
Pollen .50 out of 12
Air Quality Not available.
Flu Activity Not available.
METAR KFRI 021458Z AUTO 03015G21KT 10SM OVC049 16/13 A2978 RMK AO2 SLP078 60001 T01570134 50014

More Conditions Fewer Conditions

10-Day Weather Forecast

Almanac

Astronomy

Oct. 02, 2014 Rise Set
Actual Time 7:22 AM CDT 7:07 PM CDT
Civil Twilight 6:56 AM CDT 7:33 PM CDT
Nautical Twilight 6:25 AM CDT 8:04 PM CDT
Astronomical Twilight 5:54 AM CDT 8:35 PM CDT
Moon 3:11 PM CDT 12:44 AM CDT
Length of Visible Light 12h 37m
Length of Day
11h 44m
Tomorrow will be 2m 30s shorter.
First Quarter, 60% of the Moon is Illuminated
Today
First Quarter
Oct 8
Full
Oct 15
Last Quarter
Oct 23
New
Oct 30
First Quarter

Today's Extremes

State Highs State Lows

Community

WunderPhotos

Upload Photos

1,758,276 photos uploaded!

WunderBlogs® & News

Nearby

Snow Depth

Station Depth Elevation
No new snow has been reported.

Earthquake Activity

City Distance Mag. Time & Date
Harper, Kansas 136 miles 3.3 1:11 AM CDT
2014-10-01
Parsons, Kansas 118 miles 3.0 7:33 PM CDT
2014-09-30
Harper, Kansas 137 miles 2.9 1:49 PM CDT
2014-09-30
Harper, Kansas 137 miles 3.1 10:24 AM CDT
2014-09-30
Minimum magnitude displayed is 2.5.

Coastal Water Temperatures

Place Temperature
No Stations Reporting

Nearby Weather Stations